createdAt,value
2023-02-02T00:01:05.567Z,4.70
2023-02-02T00:04:12.933Z,4.69
2023-02-02T00:07:19.821Z,4.64
2023-02-02T00:10:27.467Z,4.58
2023-02-02T00:13:34.404Z,4.52
2023-02-02T00:16:41.794Z,4.54
2023-02-02T00:19:49.300Z,4.51
2023-02-02T00:22:55.871Z,4.52
2023-02-02T00:26:03.201Z,4.52
2023-02-02T00:29:10.079Z,4.52
2023-02-02T00:32:17.350Z,4.64
2023-02-02T00:35:24.880Z,4.65
2023-02-02T00:38:32.241Z,4.67
2023-02-02T00:41:39.431Z,4.72
2023-02-02T00:44:46.951Z,4.76
2023-02-02T00:47:54.160Z,4.79
2023-02-02T00:51:01.111Z,4.76
2023-02-02T00:54:08.318Z,4.72
2023-02-02T00:57:15.450Z,4.64
2023-02-02T01:00:22.703Z,4.61
2023-02-02T01:03:29.573Z,4.61
2023-02-02T01:06:37.100Z,4.51
2023-02-02T01:09:44.632Z,4.43
2023-02-02T01:12:51.195Z,4.43
2023-02-02T01:15:58.377Z,4.51
2023-02-02T01:19:05.715Z,4.46
2023-02-02T01:28:38.649Z,4.58
2023-02-02T01:31:47.672Z,4.64
2023-02-02T01:34:55.844Z,4.67
2023-02-02T01:38:03.933Z,4.69
2023-02-02T01:41:12.106Z,4.67
2023-02-02T01:44:20.290Z,4.64
2023-02-02T01:47:28.249Z,4.58
2023-02-02T01:50:36.066Z,4.50
2023-02-02T01:53:43.986Z,4.51
2023-02-02T01:56:52.410Z,4.47
2023-02-02T02:00:00.218Z,4.39
2023-02-02T02:03:08.202Z,4.37
2023-02-02T02:06:16.485Z,4.33
2023-02-02T02:09:24.222Z,4.34
2023-02-02T02:12:32.496Z,4.32
2023-02-02T02:15:40.905Z,4.29
2023-02-02T02:18:48.411Z,4.33
2023-02-02T02:21:56.861Z,4.43
2023-02-02T02:25:04.959Z,4.54
2023-02-02T02:28:12.957Z,4.55
2023-02-02T02:31:21.295Z,4.58
2023-02-02T02:34:29.369Z,4.62
2023-02-02T02:37:37.587Z,4.61
2023-02-02T02:40:45.760Z,4.55
2023-02-02T02:43:54.042Z,4.51
2023-02-02T02:47:02.108Z,4.44
2023-02-02T02:50:52.601Z,4.37
2023-02-02T02:54:01.189Z,4.33
2023-02-02T02:57:10.122Z,4.39
2023-02-02T03:00:18.343Z,4.46
2023-02-02T03:03:27.302Z,4.54
2023-02-02T03:06:36.130Z,4.51
2023-02-02T03:09:44.183Z,4.44
2023-02-02T03:12:53.164Z,4.40
2023-02-02T03:16:01.673Z,4.36
2023-02-02T03:19:10.084Z,4.34
2023-02-02T03:22:18.999Z,4.37
2023-02-02T03:25:27.346Z,4.34
2023-02-02T03:28:35.610Z,4.25
2023-02-02T03:31:44.159Z,4.21
2023-02-02T03:34:52.378Z,4.25
2023-02-02T03:38:01.012Z,4.25
2023-02-02T03:41:09.826Z,4.21
2023-02-02T03:44:18.884Z,4.22
2023-02-02T03:47:27.114Z,4.18
2023-02-02T03:50:35.420Z,4.26
2023-02-02T03:53:44.106Z,4.36
2023-02-02T03:56:52.258Z,4.34
2023-02-02T04:00:00.699Z,4.37
2023-02-02T04:03:09.201Z,4.34
2023-02-02T04:06:17.656Z,4.32
2023-02-02T04:09:26.227Z,4.29
2023-02-02T04:12:35.267Z,4.24
2023-02-02T04:15:43.263Z,4.25
2023-02-02T04:18:51.793Z,4.25
2023-02-02T04:22:00.511Z,4.16
2023-02-02T04:25:08.426Z,4.15
2023-02-02T04:28:17.087Z,4.08
2023-02-02T04:31:25.895Z,4.10
2023-02-02T04:34:34.782Z,4.01
2023-02-02T04:37:43.447Z,4.00
2023-02-02T04:40:51.761Z,4.04
2023-02-02T04:44:00.913Z,4.01
2023-02-02T04:47:09.423Z,3.97
2023-02-02T04:50:17.794Z,3.98
2023-02-02T04:53:26.831Z,4.03
2023-02-02T04:56:35.326Z,4.00
2023-02-02T04:59:43.868Z,4.01
2023-02-02T05:02:52.783Z,4.00
2023-02-02T05:06:00.657Z,4.03
2023-02-02T05:09:09.680Z,4.03
2023-02-02T05:12:18.268Z,4.04
2023-02-02T05:15:26.781Z,4.14
2023-02-02T05:18:35.369Z,4.16
2023-02-02T05:21:43.824Z,4.21
2023-02-02T05:24:51.958Z,4.15
2023-02-02T05:28:00.643Z,4.07
2023-02-02T05:31:09.379Z,4.00
2023-02-02T05:34:18.620Z,3.94
2023-02-02T05:37:27.482Z,3.94
2023-02-02T05:40:35.726Z,4.01
2023-02-02T05:43:44.273Z,4.06
2023-02-02T05:46:53.084Z,4.04
2023-02-02T05:50:01.666Z,4.03
2023-02-02T05:53:10.065Z,4.03
2023-02-02T05:56:18.854Z,4.06
2023-02-02T05:59:27.275Z,4.03
2023-02-02T06:02:35.460Z,4.06
2023-02-02T06:05:44.001Z,4.06
2023-02-02T06:08:52.263Z,4.08
2023-02-02T06:12:00.562Z,4.07
2023-02-02T06:15:09.161Z,4.08
2023-02-02T06:18:18.362Z,4.07
2023-02-02T06:21:26.717Z,4.06
2023-02-02T06:24:35.171Z,4.01
2023-02-02T06:27:43.962Z,3.94
2023-02-02T06:30:52.280Z,3.88
2023-02-02T06:34:00.532Z,3.86
2023-02-02T06:37:09.109Z,3.86
2023-02-02T06:40:17.419Z,3.83
2023-02-02T06:43:25.715Z,3.83
2023-02-02T06:46:34.464Z,3.83
2023-02-02T06:49:42.367Z,3.82
2023-02-02T06:52:51.282Z,3.78
2023-02-02T06:55:59.743Z,3.80
2023-02-02T06:59:07.722Z,3.78
2023-02-02T07:02:16.604Z,3.75
2023-02-02T07:05:26.289Z,3.76
2023-02-02T07:08:35.463Z,3.75
2023-02-02T07:11:45.597Z,3.71
2023-02-02T07:14:54.235Z,3.71
2023-02-02T07:18:02.172Z,3.78
2023-02-02T07:21:11.021Z,3.85
2023-02-02T07:24:19.518Z,3.86
2023-02-02T07:27:27.980Z,3.90
2023-02-02T07:30:36.587Z,3.97
2023-02-02T07:33:44.855Z,4.01
2023-02-02T07:36:53.061Z,4.07
2023-02-02T07:40:01.654Z,4.14
2023-02-02T07:43:09.932Z,4.21
2023-02-02T07:46:18.254Z,4.28
2023-02-02T07:49:26.877Z,4.37
2023-02-02T07:52:35.407Z,4.46
2023-02-02T07:55:43.616Z,4.54
2023-02-02T07:58:51.955Z,4.58
2023-02-02T08:02:00.800Z,4.61
2023-02-02T08:05:08.735Z,4.62
2023-02-02T08:08:16.996Z,4.67
2023-02-02T08:11:25.833Z,4.72
2023-02-02T08:14:34.297Z,4.76
2023-02-02T08:17:42.657Z,4.84
2023-02-02T08:20:51.240Z,4.89
2023-02-02T08:23:59.448Z,4.92
2023-02-02T08:27:07.887Z,5.01
2023-02-02T08:30:16.462Z,5.02
2023-02-02T08:33:24.386Z,5.07
2023-02-02T08:36:32.966Z,5.12
2023-02-02T08:39:41.643Z,5.14
2023-02-02T08:42:49.562Z,5.17
2023-02-02T08:46:02.111Z,5.20
2023-02-02T08:49:02.510Z,5.19
2023-02-02T08:52:10.282Z,5.22
2023-02-02T08:55:18.916Z,5.22
2023-02-02T08:58:27.421Z,5.27
2023-02-02T09:01:35.375Z,5.28
2023-02-02T09:04:43.896Z,5.32
2023-02-02T09:07:52.320Z,5.35
2023-02-02T09:11:00.597Z,5.38
2023-02-02T09:14:09.662Z,5.43
2023-02-02T09:17:18.080Z,5.48
2023-02-02T09:20:26.757Z,5.50
2023-02-02T09:23:35.344Z,5.53
2023-02-02T09:26:43.794Z,5.57
2023-02-02T09:29:52.242Z,5.60
2023-02-02T09:33:00.488Z,5.70
2023-02-02T09:36:09.280Z,5.75
2023-02-02T09:39:17.661Z,5.83
2023-02-02T09:42:26.029Z,5.91
2023-02-02T09:45:34.934Z,5.96
2023-02-02T09:48:42.937Z,6.01
2023-02-02T09:51:51.687Z,6.03
2023-02-02T09:55:00.089Z,6.04
2023-02-02T09:58:07.983Z,6.04
2023-02-02T10:01:16.693Z,6.06
2023-02-02T10:04:25.016Z,6.16
2023-02-02T10:07:33.371Z,6.22
2023-02-02T10:10:42.174Z,6.26
2023-02-02T10:13:50.108Z,6.29
2023-02-02T10:16:59.122Z,6.33
2023-02-02T10:20:07.735Z,6.40
2023-02-02T10:23:15.606Z,6.47
2023-02-02T10:26:24.343Z,6.56
2023-02-02T10:29:48.090Z,6.66
2023-02-02T10:32:38.229Z,6.68
2023-02-02T10:35:46.919Z,6.66
2023-02-02T10:38:55.181Z,6.73
2023-02-02T10:42:03.693Z,6.68
2023-02-02T10:45:11.963Z,6.47
2023-02-02T10:48:20.243Z,6.30
2023-02-02T10:51:29.166Z,6.11
2023-02-02T10:54:53.902Z,6.03
2023-02-02T10:57:43.107Z,5.88
2023-02-02T11:00:51.794Z,5.63
2023-02-02T11:03:59.730Z,5.56
2023-02-02T11:07:08.222Z,5.37
2023-02-02T11:10:16.876Z,5.34
2023-02-02T11:13:24.867Z,5.31
2023-02-02T11:16:42.673Z,5.46
2023-02-02T11:19:39.277Z,5.50
2023-02-02T11:22:47.748Z,5.53
2023-02-02T11:25:56.310Z,5.59
2023-02-02T11:29:04.294Z,5.66
2023-02-02T11:32:13.009Z,5.71
2023-02-02T11:35:21.884Z,5.75
2023-02-02T11:38:29.953Z,5.85
2023-02-02T11:41:38.639Z,6.01
2023-02-02T11:44:47.583Z,6.13
2023-02-02T11:47:56.063Z,6.28
2023-02-02T11:51:04.335Z,6.43
2023-02-02T11:54:12.997Z,6.46
2023-02-02T11:57:21.600Z,6.46
2023-02-02T12:00:29.915Z,6.38
2023-02-02T12:03:38.235Z,6.43
2023-02-02T12:06:46.742Z,6.40
2023-02-02T12:09:55.033Z,6.48
2023-02-02T12:13:03.448Z,6.72
2023-02-02T12:16:12.278Z,6.89
2023-02-02T12:19:20.296Z,6.89
2023-02-02T12:22:28.599Z,7.12
2023-02-02T12:25:37.499Z,7.17
2023-02-02T12:28:45.515Z,7.17
2023-02-02T12:31:54.156Z,7.12
2023-02-02T12:35:02.383Z,7.02
2023-02-02T12:38:10.379Z,6.99
2023-02-02T12:41:19.311Z,6.94
2023-02-02T12:44:28.309Z,6.99
2023-02-02T12:47:36.321Z,7.12
2023-02-02T12:50:45.044Z,7.15
2023-02-02T12:54:34.983Z,7.13
2023-02-02T12:56:58.899Z,7.08
2023-02-02T13:00:07.494Z,7.04
2023-02-02T13:03:15.340Z,6.98
2023-02-02T13:06:24.027Z,6.90
2023-02-02T13:09:32.576Z,6.87
2023-02-02T13:12:40.953Z,6.77
2023-02-02T13:15:49.933Z,6.63
2023-02-02T13:18:58.231Z,6.54
2023-02-02T13:22:06.557Z,6.43
2023-02-02T13:25:14.833Z,6.38
2023-02-02T13:28:23.455Z,6.41
2023-02-02T13:31:32.024Z,6.46
2023-02-02T13:34:40.569Z,6.58
2023-02-02T13:37:49.480Z,6.71
2023-02-02T13:40:58.061Z,6.87
2023-02-02T13:44:06.438Z,6.90
2023-02-02T13:47:15.151Z,6.84
2023-02-02T13:50:23.264Z,6.79
2023-02-02T13:53:31.869Z,6.72
2023-02-02T13:56:40.742Z,6.69
2023-02-02T13:59:48.905Z,6.66
2023-02-02T14:02:57.724Z,6.66
2023-02-02T14:06:05.788Z,6.59
2023-02-02T14:09:14.185Z,6.56
2023-02-02T14:12:23.159Z,6.53
2023-02-02T14:15:34.425Z,6.50
2023-02-02T14:18:31.928Z,6.50
2023-02-02T14:21:41.012Z,6.58
2023-02-02T14:24:49.280Z,6.63
2023-02-02T14:27:57.985Z,6.68
2023-02-02T14:31:06.590Z,6.69
2023-02-02T14:34:14.987Z,6.69
2023-02-02T14:37:23.730Z,6.68
2023-02-02T14:40:31.533Z,6.63
2023-02-02T14:43:39.994Z,6.63
2023-02-02T14:46:48.733Z,6.61
2023-02-02T14:49:56.693Z,6.59
2023-02-02T14:53:05.326Z,6.58
2023-02-02T14:56:13.611Z,6.53
2023-02-02T14:59:22.103Z,6.46
2023-02-02T15:02:30.946Z,6.36
2023-02-02T15:05:39.444Z,6.33
2023-02-02T15:08:47.574Z,6.29
2023-02-02T15:11:56.217Z,6.28
2023-02-02T15:15:04.514Z,6.26
2023-02-02T15:18:12.804Z,6.28
2023-02-02T15:21:21.184Z,6.28
2023-02-02T15:24:29.843Z,6.28
2023-02-02T15:27:48.002Z,6.25
2023-02-02T15:30:43.303Z,6.18
2023-02-02T15:33:52.091Z,6.09
2023-02-02T15:37:00.458Z,6.04
2023-02-02T15:40:09.011Z,6.00
2023-02-02T15:43:17.692Z,5.91
2023-02-02T15:46:26.463Z,5.85
2023-02-02T15:49:36.075Z,5.77
2023-02-02T15:52:46.423Z,5.71
2023-02-02T15:55:54.671Z,5.64
2023-02-02T15:59:03.347Z,5.59
2023-02-02T16:02:12.321Z,5.53
2023-02-02T16:05:20.738Z,5.46
2023-02-02T16:08:29.166Z,5.41
2023-02-02T16:11:37.648Z,5.35
2023-02-02T16:14:46.630Z,5.28
2023-02-02T16:17:55.079Z,5.23
2023-02-02T16:21:03.266Z,5.16
2023-02-02T16:24:11.482Z,5.09
2023-02-02T16:27:19.881Z,5.02
2023-02-02T16:30:28.152Z,4.91
2023-02-02T16:33:36.444Z,4.83
2023-02-02T16:36:44.515Z,4.79
2023-02-02T16:39:53.113Z,4.76
2023-02-02T16:43:01.493Z,4.77
2023-02-02T16:46:09.940Z,4.76
2023-02-02T16:49:19.250Z,4.77
2023-02-02T16:52:28.576Z,4.73
2023-02-02T16:55:50.056Z,4.69
2023-02-02T16:58:42.766Z,4.64
2023-02-02T17:01:51.844Z,4.62
2023-02-02T17:04:59.948Z,4.61
2023-02-02T17:08:08.328Z,4.62
2023-02-02T17:11:16.633Z,4.64
2023-02-02T17:14:24.863Z,4.69
2023-02-02T17:17:33.342Z,4.72
2023-02-02T17:20:41.473Z,4.72
2023-02-02T17:23:50.060Z,4.70
2023-02-02T17:26:58.466Z,4.65
2023-02-02T17:30:06.843Z,4.58
2023-02-02T17:33:15.138Z,4.55
2023-02-02T17:36:23.352Z,4.55
2023-02-02T17:39:32.153Z,4.54
2023-02-02T17:42:40.356Z,4.54
2023-02-02T17:45:49.507Z,4.52
2023-02-02T17:48:58.375Z,4.51
2023-02-02T17:52:06.155Z,4.50
2023-02-02T17:55:15.291Z,4.47
2023-02-02T17:58:23.874Z,4.47
2023-02-02T18:01:31.890Z,4.52
2023-02-02T18:04:41.076Z,4.54
2023-02-02T18:07:49.632Z,4.55
2023-02-02T18:10:57.870Z,4.57
2023-02-02T18:14:06.591Z,4.58
2023-02-02T18:17:14.610Z,4.61
2023-02-02T18:20:23.622Z,4.65
2023-02-02T18:23:32.521Z,4.64
2023-02-02T18:26:40.922Z,4.64
2023-02-02T18:29:49.732Z,4.67
2023-02-02T18:32:58.276Z,4.67
2023-02-02T18:36:06.818Z,4.70
2023-02-02T18:39:15.474Z,4.72
2023-02-02T18:42:26.074Z,4.76
2023-02-02T18:45:34.756Z,4.79
2023-02-02T18:48:43.164Z,4.77
2023-02-02T18:51:51.467Z,4.79
2023-02-02T18:54:59.876Z,4.77
2023-02-02T18:58:07.865Z,4.77
2023-02-02T19:01:16.596Z,4.75
2023-02-02T19:04:24.588Z,4.76
2023-02-02T19:07:33.118Z,4.77
2023-02-02T19:10:41.943Z,4.76
2023-02-02T19:13:49.746Z,4.73
2023-02-02T19:16:58.776Z,4.72
2023-02-02T19:20:07.633Z,4.70
2023-02-02T19:23:15.490Z,4.65
2023-02-02T19:26:24.285Z,4.65
2023-02-02T19:29:32.274Z,4.64
2023-02-02T19:32:40.626Z,4.64
2023-02-02T19:35:49.667Z,4.59
2023-02-02T19:38:58.188Z,4.58
2023-02-02T19:42:06.538Z,4.55
2023-02-02T19:45:14.951Z,4.55
2023-02-02T19:48:23.952Z,4.50
2023-02-02T19:51:32.403Z,4.43
2023-02-02T19:54:40.757Z,4.40
2023-02-02T19:57:48.961Z,4.37
2023-02-02T20:00:57.141Z,4.33
2023-02-02T20:04:05.536Z,4.28
2023-02-02T20:07:13.902Z,4.25
2023-02-02T20:10:22.030Z,4.21
2023-02-02T20:13:31.103Z,4.18
2023-02-02T20:16:39.525Z,4.12
2023-02-02T20:19:48.042Z,4.07
2023-02-02T20:22:56.670Z,4.03
2023-02-02T20:26:04.705Z,3.97
2023-02-02T20:29:13.146Z,3.94
2023-02-02T20:32:21.634Z,3.89
2023-02-02T20:35:30.213Z,3.89
2023-02-02T20:38:38.121Z,3.88
2023-02-02T20:41:46.302Z,3.88
2023-02-02T20:44:54.556Z,3.88
2023-02-02T20:48:02.549Z,3.85
2023-02-02T20:51:11.598Z,3.82
2023-02-02T20:54:20.101Z,3.79
2023-02-02T20:57:28.446Z,3.76
2023-02-02T21:00:37.110Z,3.75
2023-02-02T21:03:46.509Z,3.76
2023-02-02T21:06:54.771Z,3.76
2023-02-02T21:10:02.979Z,3.75
2023-02-02T21:13:12.432Z,3.72
2023-02-02T21:16:20.798Z,3.72
2023-02-02T21:19:29.076Z,3.76
2023-02-02T21:22:37.124Z,3.75
2023-02-02T21:25:39.065Z,3.78
2023-02-02T21:28:47.325Z,3.76
2023-02-02T21:31:55.899Z,3.79
2023-02-02T21:35:04.075Z,3.80
2023-02-02T21:38:12.728Z,3.82
2023-02-02T21:41:21.066Z,3.82
2023-02-02T21:44:29.124Z,3.82
2023-02-02T21:47:37.865Z,3.82
2023-02-02T21:50:46.305Z,3.82
2023-02-02T21:53:54.839Z,3.83
2023-02-02T21:57:03.521Z,3.79
2023-02-02T22:00:11.376Z,3.78
2023-02-02T22:03:20.161Z,3.76
2023-02-02T22:06:28.974Z,3.76
2023-02-02T22:09:36.952Z,3.76
2023-02-02T22:12:45.907Z,3.75
2023-02-02T22:15:54.301Z,3.75
2023-02-02T22:19:02.657Z,3.76
2023-02-02T22:22:11.192Z,3.78
2023-02-02T22:25:19.482Z,3.76
2023-02-02T22:28:27.870Z,3.78
2023-02-02T22:31:35.882Z,3.80
2023-02-02T22:34:44.415Z,3.79
2023-02-02T22:37:52.398Z,3.80
2023-02-02T22:41:01.016Z,3.80
2023-02-02T22:44:09.583Z,3.80
2023-02-02T22:47:17.313Z,3.80
2023-02-02T22:50:26.178Z,3.80
2023-02-02T22:53:34.744Z,3.80
2023-02-02T22:56:42.612Z,3.82
2023-02-02T22:59:51.139Z,3.85
2023-02-02T23:02:59.815Z,3.85
2023-02-02T23:06:07.906Z,3.86
2023-02-02T23:09:16.764Z,3.88
2023-02-02T23:12:24.742Z,3.92
2023-02-02T23:15:33.384Z,3.96
2023-02-02T23:18:41.916Z,3.97
2023-02-02T23:21:49.870Z,4.03
2023-02-02T23:24:58.380Z,4.08
2023-02-02T23:28:06.365Z,4.14
2023-02-02T23:31:14.661Z,4.19
2023-02-02T23:34:23.041Z,4.25
2023-02-02T23:37:31.292Z,4.32
2023-02-02T23:40:39.688Z,4.36
2023-02-02T23:43:47.953Z,4.39
2023-02-02T23:46:56.730Z,4.42
2023-02-02T23:50:05.104Z,4.46
2023-02-02T23:53:13.460Z,4.51
2023-02-02T23:56:22.002Z,4.55
2023-02-02T23:59:30.307Z,4.59
